createdAt,value
2022-09-13T03:47:44.410Z,12.60
2022-09-13T03:50:17.987Z,12.50
2022-09-13T03:52:46.599Z,12.50
2022-09-13T03:55:13.484Z,12.50
2022-09-13T03:57:40.268Z,12.40
2022-09-13T04:00:07.529Z,12.50
2022-09-13T04:02:36.358Z,12.40
2022-09-13T04:05:03.106Z,12.40
2022-09-13T04:07:29.791Z,12.40
2022-09-13T04:09:56.434Z,12.40
2022-09-13T04:12:23.623Z,12.40
2022-09-13T04:14:50.354Z,12.40
2022-09-13T04:17:17.314Z,12.40
2022-09-13T04:19:47.263Z,12.40
2022-09-13T04:22:14.247Z,12.40
2022-09-13T04:24:41.035Z,12.40
2022-09-13T04:27:07.811Z,12.40
2022-09-13T04:29:34.505Z,12.30
2022-09-13T04:32:01.259Z,12.30
2022-09-13T04:34:28.092Z,12.20
2022-09-13T04:36:55.454Z,12.20
2022-09-13T04:39:23.581Z,12.20
2022-09-13T04:41:52.005Z,12.20
2022-09-13T04:44:18.838Z,12.20
2022-09-13T04:46:48.720Z,12.10
2022-09-13T04:49:17.272Z,12.10
2022-09-13T04:51:44.400Z,12.10
2022-09-13T04:54:15.585Z,12.10
2022-09-13T04:56:44.477Z,12.10
2022-09-13T04:59:12.035Z,12.10
2022-09-13T05:01:39.539Z,12.00
2022-09-13T05:04:07.453Z,12.00
2022-09-13T05:06:34.709Z,12.00
2022-09-13T05:09:01.619Z,12.00
2022-09-13T05:11:29.704Z,12.10
2022-09-13T05:13:59.148Z,12.10
2022-09-13T05:16:28.479Z,12.20
2022-09-13T05:18:55.681Z,12.20
2022-09-13T05:21:22.719Z,12.20
2022-09-13T05:23:50.625Z,12.20
2022-09-13T05:26:18.194Z,12.20
2022-09-13T05:28:45.022Z,12.20
2022-09-13T05:31:20.955Z,12.20
2022-09-13T05:33:52.834Z,12.20
2022-09-13T05:36:20.040Z,12.30
2022-09-13T05:38:46.726Z,12.30
2022-09-13T05:41:13.369Z,12.30
2022-09-13T05:43:40.062Z,12.30
2022-09-13T05:46:15.745Z,12.30
2022-09-13T05:48:42.837Z,12.40
2022-09-13T05:51:10.129Z,12.40
2022-09-13T05:53:39.961Z,12.50
2022-09-13T05:56:16.776Z,12.50
2022-09-13T05:58:46.301Z,12.60
2022-09-13T06:01:14.141Z,12.60
2022-09-13T06:03:41.317Z,12.70
2022-09-13T06:06:08.834Z,12.70
2022-09-13T06:08:36.424Z,12.70
2022-09-13T06:11:13.612Z,12.80
2022-09-13T06:13:42.509Z,12.90
2022-09-13T06:16:11.679Z,13.00
2022-09-13T06:18:38.777Z,13.10
2022-09-13T06:21:11.958Z,13.20
2022-09-13T06:23:38.874Z,13.30
2022-09-13T06:26:10.652Z,13.40
2022-09-13T06:28:37.901Z,13.50
2022-09-13T06:31:13.806Z,13.60
2022-09-13T06:33:42.338Z,13.70
2022-09-13T06:36:14.738Z,13.90
2022-09-13T06:38:42.192Z,14.00
2022-09-13T06:41:14.456Z,14.10
2022-09-13T06:43:41.842Z,14.30
2022-09-13T06:46:13.592Z,14.40
2022-09-13T06:48:42.629Z,14.50
2022-09-13T06:51:18.789Z,14.60
2022-09-13T06:53:47.130Z,14.70
2022-09-13T06:56:14.937Z,14.80
2022-09-13T06:58:43.541Z,15.00
2022-09-13T07:01:16.733Z,15.10
2022-09-13T07:03:46.336Z,15.30
2022-09-13T07:06:19.069Z,15.40
2022-09-13T07:08:49.482Z,15.60
2022-09-13T07:11:18.659Z,15.70
2022-09-13T07:13:52.501Z,15.90
2022-09-13T07:16:21.154Z,16.00
2022-09-13T07:18:56.005Z,16.20
2022-09-13T07:21:23.665Z,16.40
2022-09-13T07:23:52.630Z,16.50
2022-09-13T07:26:20.110Z,16.70
2022-09-13T07:28:48.996Z,16.90
2022-09-13T07:31:17.395Z,17.10
2022-09-13T07:33:45.000Z,17.30
2022-09-13T07:36:12.987Z,17.60
2022-09-13T07:38:41.709Z,17.70
2022-09-13T07:41:13.477Z,17.90
2022-09-13T07:43:40.390Z,18.20
2022-09-13T07:46:08.442Z,18.30
2022-09-13T07:48:37.203Z,18.50
2022-09-13T07:51:05.984Z,18.80
2022-09-13T07:53:34.338Z,19.00
2022-09-13T07:56:09.570Z,19.40
2022-09-13T07:58:38.095Z,19.80
2022-09-13T08:01:07.709Z,20.30
2022-09-13T08:03:35.771Z,21.00
2022-09-13T08:06:04.353Z,21.50
2022-09-13T08:08:31.963Z,22.20
2022-09-13T08:10:59.654Z,23.10
2022-09-13T08:13:26.780Z,23.70
2022-09-13T08:15:53.504Z,24.80
2022-09-13T08:18:20.395Z,25.60
2022-09-13T08:20:47.387Z,26.60
2022-09-13T08:23:14.905Z,27.70
2022-09-13T08:25:41.622Z,28.50
2022-09-13T08:28:14.676Z,28.80
2022-09-13T08:30:43.521Z,28.50
2022-09-13T08:33:11.917Z,28.80
2022-09-13T08:35:38.811Z,29.70
2022-09-13T08:38:06.388Z,30.70
2022-09-13T08:40:41.217Z,31.60
2022-09-13T08:43:39.278Z,32.40
2022-09-13T08:46:27.614Z,32.80
2022-09-13T08:49:03.390Z,33.20
2022-09-13T08:51:47.946Z,34.00
2022-09-13T08:54:18.596Z,34.60
2022-09-13T08:57:03.939Z,35.10
2022-09-13T08:59:40.150Z,35.60
2022-09-13T09:02:16.069Z,36.10
2022-09-13T09:04:58.543Z,36.10
2022-09-13T09:07:29.165Z,36.30
2022-09-13T09:09:58.589Z,36.40
2022-09-13T09:12:38.166Z,36.40
2022-09-13T09:15:14.962Z,36.50
2022-09-13T09:18:00.586Z,36.90
2022-09-13T09:20:32.246Z,35.70
2022-09-13T09:23:05.911Z,34.40
2022-09-13T09:25:34.594Z,34.00
2022-09-13T09:28:02.847Z,33.90
2022-09-13T09:30:57.511Z,34.20
2022-09-13T09:33:44.435Z,33.90
2022-09-13T09:36:35.306Z,34.40
2022-09-13T09:39:05.122Z,35.20
2022-09-13T09:41:36.938Z,36.30
2022-09-13T09:44:18.509Z,37.20
2022-09-13T09:46:51.920Z,37.30
2022-09-13T09:49:56.829Z,37.70
2022-09-13T09:52:30.929Z,38.80
2022-09-13T09:55:11.057Z,39.40
2022-09-13T09:57:52.029Z,39.10
2022-09-13T10:00:20.144Z,39.30
2022-09-13T10:02:48.443Z,39.70
2022-09-13T10:05:20.754Z,39.90
2022-09-13T10:08:25.705Z,39.50
2022-09-13T10:10:59.418Z,39.20
2022-09-13T10:13:31.571Z,39.70
2022-09-13T10:16:05.151Z,39.90
2022-09-13T10:18:45.406Z,40.00
2022-09-13T10:21:18.511Z,40.10
2022-09-13T10:23:50.487Z,40.10
2022-09-13T10:26:19.098Z,40.40
2022-09-13T10:28:52.062Z,40.70
2022-09-13T10:31:20.920Z,41.00
2022-09-13T10:33:50.406Z,41.30
2022-09-13T10:36:48.284Z,41.80
2022-09-13T10:39:17.799Z,42.00
2022-09-13T10:42:00.162Z,41.20
2022-09-13T10:44:41.960Z,40.60
2022-09-13T10:47:23.625Z,39.80
2022-09-13T10:49:53.074Z,39.90
2022-09-13T10:52:33.456Z,40.30
2022-09-13T10:55:18.706Z,39.80
2022-09-13T10:57:51.322Z,39.20
2022-09-13T11:00:32.775Z,38.40
2022-09-13T11:03:08.918Z,38.40
2022-09-13T11:05:53.369Z,38.30
2022-09-13T11:08:20.000Z,38.20
2022-09-13T11:10:46.612Z,37.50
2022-09-13T11:13:40.829Z,37.30
2022-09-13T11:16:25.152Z,36.60
2022-09-13T11:19:29.161Z,36.10
2022-09-13T11:22:07.053Z,36.20
2022-09-13T11:24:54.975Z,36.30
2022-09-13T11:27:46.278Z,36.40
2022-09-13T11:30:19.085Z,36.30
2022-09-13T11:33:00.739Z,35.40
2022-09-13T11:35:54.497Z,35.00
2022-09-13T11:38:41.477Z,34.70
2022-09-13T11:41:28.145Z,34.20
2022-09-13T11:44:04.065Z,34.10
2022-09-13T11:46:49.051Z,33.90
2022-09-13T11:49:30.732Z,34.10
2022-09-13T11:52:03.354Z,35.10
2022-09-13T11:55:00.893Z,35.70
2022-09-13T11:57:32.896Z,35.90
2022-09-13T12:00:08.706Z,36.20
2022-09-13T12:02:49.325Z,36.10
2022-09-13T12:05:25.353Z,35.60
2022-09-13T12:08:17.382Z,35.60
2022-09-13T12:11:11.817Z,35.80
2022-09-13T12:13:49.663Z,36.10
2022-09-13T12:16:37.562Z,35.80
2022-09-13T12:19:25.393Z,35.80
2022-09-13T12:21:57.197Z,35.90
2022-09-13T12:24:40.421Z,35.30
2022-09-13T12:27:11.233Z,34.80
2022-09-13T12:29:51.391Z,35.00
2022-09-13T12:32:18.780Z,35.30
2022-09-13T12:35:06.056Z,35.10
2022-09-13T12:37:53.806Z,35.00
2022-09-13T12:40:58.154Z,34.80
2022-09-13T12:43:46.733Z,34.60
2022-09-13T12:46:31.906Z,34.20
2022-09-13T12:49:32.979Z,33.70
2022-09-13T12:52:24.595Z,33.20
2022-09-13T12:54:51.295Z,32.80
2022-09-13T12:58:02.106Z,32.50
2022-09-13T13:00:49.459Z,32.30
2022-09-13T13:03:19.198Z,32.10
2022-09-13T13:05:49.546Z,32.20
2022-09-13T13:08:22.054Z,32.30
2022-09-13T13:11:05.539Z,32.10
2022-09-13T13:13:39.364Z,32.00
2022-09-13T13:16:22.887Z,32.00
2022-09-13T13:18:52.354Z,31.80
2022-09-13T13:21:35.949Z,31.60
2022-09-13T13:24:18.750Z,31.50
2022-09-13T13:26:49.524Z,31.20
2022-09-13T13:29:24.447Z,31.10
2022-09-13T13:32:07.834Z,30.50
2022-09-13T13:34:42.534Z,29.90
2022-09-13T13:37:09.301Z,29.70
2022-09-13T13:39:42.106Z,29.80
2022-09-13T13:42:28.060Z,29.60
2022-09-13T13:44:54.661Z,29.60
2022-09-13T13:47:21.266Z,29.70
2022-09-13T13:50:03.933Z,30.00
2022-09-13T13:52:49.625Z,30.40
2022-09-13T13:55:45.566Z,30.90
2022-09-13T13:58:31.122Z,31.30
2022-09-13T14:01:00.325Z,31.60
2022-09-13T14:04:01.558Z,31.90
2022-09-13T14:06:55.658Z,31.90
2022-09-13T14:09:38.176Z,32.00
2022-09-13T14:12:19.970Z,32.10
2022-09-13T14:15:01.907Z,31.90
2022-09-13T14:17:49.818Z,31.70
2022-09-13T14:20:19.569Z,31.90
2022-09-13T14:22:46.421Z,32.10
2022-09-13T14:25:19.209Z,32.40
2022-09-13T14:27:46.938Z,32.60
2022-09-13T14:30:24.030Z,32.60
2022-09-13T14:32:54.450Z,32.70
2022-09-13T14:35:29.938Z,32.70
2022-09-13T14:38:10.056Z,32.50
2022-09-13T14:40:38.485Z,32.30
2022-09-13T14:43:16.597Z,32.10
2022-09-13T14:45:47.572Z,32.00
2022-09-13T14:48:35.418Z,31.80
2022-09-13T14:51:14.454Z,31.80
2022-09-13T14:53:43.010Z,31.80
2022-09-13T14:56:25.020Z,31.70
2022-09-13T14:58:56.957Z,31.60
2022-09-13T15:01:32.538Z,31.40
2022-09-13T15:04:01.706Z,31.30
2022-09-13T15:06:31.558Z,31.20
2022-09-13T15:09:21.491Z,31.10
2022-09-13T15:11:54.224Z,30.80
2022-09-13T15:14:32.917Z,30.60
2022-09-13T15:17:10.939Z,30.30
2022-09-13T15:19:42.374Z,30.30
2022-09-13T15:22:20.409Z,30.00
2022-09-13T15:24:55.979Z,30.00
2022-09-13T15:27:25.515Z,30.00
2022-09-13T15:30:04.639Z,30.00
2022-09-13T15:32:44.026Z,30.10
2022-09-13T15:35:22.413Z,30.20
2022-09-13T15:38:17.173Z,30.20
2022-09-13T15:40:46.708Z,30.10
2022-09-13T15:43:13.421Z,30.10
2022-09-13T15:45:40.174Z,30.10
2022-09-13T15:48:07.025Z,30.00
2022-09-13T15:50:36.991Z,29.90
2022-09-13T15:53:11.634Z,29.70
2022-09-13T15:55:39.706Z,29.60
2022-09-13T15:58:06.401Z,29.30
2022-09-13T16:00:33.095Z,29.00
2022-09-13T16:03:00.052Z,28.70
2022-09-13T16:05:26.833Z,28.30
2022-09-13T16:07:58.778Z,28.10
2022-09-13T16:10:25.487Z,27.90
2022-09-13T16:12:52.297Z,27.70
2022-09-13T16:15:19.023Z,27.70
2022-09-13T16:17:45.730Z,27.50
2022-09-13T16:20:14.610Z,27.40
2022-09-13T16:22:41.435Z,27.20
2022-09-13T16:25:09.503Z,27.10
2022-09-13T16:27:37.009Z,26.90
2022-09-13T16:30:04.465Z,26.60
2022-09-13T16:32:31.178Z,26.50
2022-09-13T16:34:57.908Z,26.30
2022-09-13T16:37:24.722Z,26.20
2022-09-13T16:39:51.467Z,26.00
2022-09-13T16:42:18.523Z,25.90
2022-09-13T16:44:45.268Z,25.80
2022-09-13T16:47:12.310Z,25.70
2022-09-13T16:49:38.953Z,25.50
2022-09-13T16:52:06.121Z,25.40
2022-09-13T16:54:35.116Z,25.30
2022-09-13T16:57:06.274Z,25.30
2022-09-13T16:59:33.835Z,25.30
2022-09-13T17:02:00.619Z,25.10
2022-09-13T17:04:27.474Z,25.10
2022-09-13T17:06:54.149Z,24.90
2022-09-13T17:09:22.440Z,24.80
2022-09-13T17:11:49.796Z,24.70
2022-09-13T17:14:17.712Z,24.60
2022-09-13T17:16:50.734Z,24.50
2022-09-13T17:19:21.265Z,24.50
2022-09-13T17:21:48.457Z,24.40
2022-09-13T17:24:15.342Z,24.40
2022-09-13T17:26:43.497Z,24.40
2022-09-13T17:29:14.148Z,24.30
2022-09-13T17:31:43.207Z,24.20
2022-09-13T17:34:11.201Z,24.00
2022-09-13T17:36:39.449Z,23.80
2022-09-13T17:39:06.817Z,23.80
2022-09-13T17:41:34.106Z,23.70
2022-09-13T17:44:00.850Z,23.70
2022-09-13T17:46:29.970Z,23.60
2022-09-13T17:48:59.159Z,23.50
2022-09-13T17:51:28.740Z,23.40
2022-09-13T17:54:00.351Z,23.30
2022-09-13T17:56:36.158Z,23.30
2022-09-13T17:59:10.292Z,23.30
2022-09-13T18:01:39.241Z,23.20
2022-09-13T18:04:07.680Z,23.10
2022-09-13T18:06:35.371Z,23.20
2022-09-13T18:09:02.410Z,23.20
2022-09-13T18:11:29.230Z,23.20
2022-09-13T18:13:56.425Z,23.20
2022-09-13T18:16:25.976Z,23.20
2022-09-13T18:18:53.546Z,23.20
2022-09-13T18:21:22.506Z,23.10
2022-09-13T18:23:52.432Z,23.10
2022-09-13T18:26:22.020Z,23.00
2022-09-13T18:28:55.829Z,23.00
2022-09-13T18:31:24.332Z,23.00
2022-09-13T18:34:01.746Z,22.90
2022-09-13T18:36:30.327Z,22.90
2022-09-13T18:38:57.724Z,22.90
2022-09-13T18:41:26.989Z,22.80
2022-09-13T18:43:55.894Z,22.80
2022-09-13T18:46:26.327Z,22.70
2022-09-13T18:48:57.551Z,22.80
2022-09-13T18:51:31.068Z,22.80
2022-09-13T18:53:58.560Z,22.70
2022-09-13T18:56:26.048Z,22.60
2022-09-13T18:58:54.278Z,22.50
2022-09-13T19:01:27.069Z,22.50
2022-09-13T19:04:00.053Z,22.40
2022-09-13T19:06:35.481Z,22.40
2022-09-13T19:09:03.738Z,22.30
2022-09-13T19:11:46.326Z,22.40
2022-09-13T19:14:19.385Z,22.40
2022-09-13T19:16:46.994Z,22.40
2022-09-13T19:19:13.926Z,22.30
2022-09-13T19:21:41.184Z,22.30
2022-09-13T19:24:14.828Z,22.30
2022-09-13T19:26:44.819Z,22.30
2022-09-13T19:29:14.219Z,22.30
2022-09-13T19:31:43.166Z,22.20
2022-09-13T19:34:11.159Z,22.10
2022-09-13T19:36:39.534Z,22.10
2022-09-13T19:39:07.739Z,22.10
2022-09-13T19:41:36.166Z,22.00
2022-09-13T19:44:04.297Z,22.00
2022-09-13T19:46:35.626Z,21.90
2022-09-13T19:49:03.286Z,21.80
2022-09-13T19:51:35.696Z,21.70
2022-09-13T19:54:03.619Z,21.70
2022-09-13T19:56:32.767Z,21.70
2022-09-13T19:59:01.059Z,21.70
2022-09-13T20:01:36.616Z,21.70
2022-09-13T20:04:09.261Z,21.80
2022-09-13T20:06:39.897Z,21.80
2022-09-13T20:09:07.850Z,21.70
2022-09-13T20:11:38.793Z,21.70
2022-09-13T20:14:08.787Z,21.70
2022-09-13T20:16:37.306Z,21.60
2022-09-13T20:19:13.952Z,21.60
2022-09-13T20:21:51.297Z,21.60
2022-09-13T20:24:18.866Z,21.60
2022-09-13T20:26:45.622Z,21.60
2022-09-13T20:29:13.589Z,21.50
2022-09-13T20:31:40.362Z,21.40
2022-09-13T20:34:08.749Z,21.30
2022-09-13T20:36:36.926Z,21.30
2022-09-13T20:39:06.017Z,21.30
2022-09-13T20:41:33.059Z,21.30
2022-09-13T20:44:00.877Z,21.30
2022-09-13T20:46:29.294Z,21.30
2022-09-13T20:48:56.131Z,21.30
2022-09-13T20:51:25.250Z,21.20
2022-09-13T20:53:57.513Z,21.20
2022-09-13T20:56:24.640Z,21.10
2022-09-13T20:58:57.579Z,21.10
2022-09-13T21:01:25.258Z,21.10
2022-09-13T21:03:54.433Z,21.10
2022-09-13T21:06:23.553Z,21.10
2022-09-13T21:08:51.042Z,21.20
2022-09-13T21:11:24.169Z,21.10
2022-09-13T21:13:56.291Z,21.10
2022-09-13T21:16:25.026Z,21.10
2022-09-13T21:18:53.170Z,21.10
2022-09-13T21:21:31.936Z,21.10
2022-09-13T21:24:00.411Z,21.10
2022-09-13T21:26:28.443Z,21.00
2022-09-13T21:28:56.319Z,21.00
2022-09-13T21:31:25.359Z,21.00
2022-09-13T21:34:04.023Z,20.90
2022-09-13T21:36:34.539Z,20.90
2022-09-13T21:39:02.322Z,20.80
2022-09-13T21:41:29.630Z,20.80
2022-09-13T21:43:56.781Z,20.80
2022-09-13T21:46:29.038Z,20.80
2022-09-13T21:49:04.836Z,20.80
2022-09-13T21:51:37.373Z,20.80
2022-09-13T21:54:07.113Z,20.90
2022-09-13T21:56:38.107Z,20.90
2022-09-13T21:59:08.041Z,20.90
2022-09-13T22:01:41.900Z,20.90
2022-09-13T22:04:13.102Z,20.90
2022-09-13T22:06:40.016Z,20.80
2022-09-13T22:09:08.399Z,20.80
2022-09-13T22:11:43.166Z,20.80
2022-09-13T22:14:12.388Z,20.70
2022-09-13T22:16:41.058Z,20.70
2022-09-13T22:19:19.483Z,20.70
2022-09-13T22:21:48.990Z,20.70
2022-09-13T22:24:18.727Z,20.70
2022-09-13T22:26:46.878Z,20.60
2022-09-13T22:29:15.201Z,20.50
2022-09-13T22:31:44.698Z,20.50
2022-09-13T22:34:15.241Z,20.50
2022-09-13T22:36:42.225Z,20.40
2022-09-13T22:39:12.502Z,20.40
2022-09-13T22:41:40.107Z,20.40
2022-09-13T22:44:07.655Z,20.40
2022-09-13T22:46:35.555Z,20.40
2022-09-13T22:49:04.079Z,20.40
2022-09-13T22:51:31.145Z,20.40
2022-09-13T22:53:59.835Z,20.50
2022-09-13T22:56:30.850Z,20.50
2022-09-13T22:59:00.297Z,20.50
